Admiralengracht — PCDE — position and weather

sailwx.info

Track history (hours):
 
Tides and Currents Weather Stations Pressure Air Temp Water Temp Dewpoint Dewpoint Depression Visibility Wind Speed Wind Dir Waves Ship Positions

Admiralengracht

Last reported at 2017-Jan-06 21:32 UTC. Time now 2017-Mar-23 23:56 UTC.
Position S 32°35' E 152°47'.
Warning: this ship's position is months out of date.

Length 130 m; beam 19 m; draft 9 m.

Type: Cargo ship. MMSI: 244599000.

Date/timePositionNaut miles runAvg speedWind from/ knotsBaromVisibWave heightAir tempDewpointWater temp
2017-Jan-06 21:32S 32°35' E 152°47'10 9.7
2017-Jan-06 20:33S 32°40' E 152°37'1110.6
2017-Jan-06 19:33S 32°45' E 152°26'1110.7
2017-Jan-06 18:33S 32°50' E 152°15'1211.6
2017-Jan-06 17:33S 32°54' E 152°02'1110.8
2017-Jan-06 16:33S 32°55' E 151°49'3 2.6
2017-Jan-06 15:23S 32°54' E 151°46'0 0.0
2017-Jan-06 14:29S 32°54' E 151°46'0 0.0
2017-Jan-06 13:29S 32°54' E 151°46'0 0.0
2017-Jan-06 12:23S 32°54' E 151°46'0 0.0
2017-Jan-06 11:23S 32°54' E 151°46'0 0.0
2017-Jan-06 09:29S 32°54' E 151°46'0 0.0
2017-Jan-06 07:11S 32°54' E 151°46'0 0.0
2017-Jan-05 17:29S 32°54' E 151°46'0 0.0
2017-Jan-05 15:11S 32°54' E 151°46'0 0.0
2017-Jan-05 14:23S 32°54' E 151°46'0 0.0
2017-Jan-05 10:04S 32°54' E 151°46'0 0.0
2017-Jan-05 07:28S 32°54' E 151°46'0 0.0
2017-Jan-05 05:10S 32°54' E 151°46'0 0.0
2017-Jan-05 04:28S 32°54' E 151°46'0 0.0
2017-Jan-04 23:11S 32°54' E 151°46'2 3.9
2017-Jan-04 22:32S 32°55' E 151°49'8 8.5
2017-Jan-04 21:33S 33°02' E 151°54'  
2017-Jan-02 13:04S 32°59' E 151°52'4 7.6
2017-Jan-02 12:33S 32°58' E 151°56'1110.8
2017-Jan-02 11:33S 32°54' E 152°08'1111.4
2017-Jan-02 10:33S 32°48' E 152°20'1111.1
2017-Jan-02 09:33S 32°42' E 152°31'1110.7
2017-Jan-02 08:33S 32°37' E 152°42'367 9.1
2016-Dec-31 16:13S 26°39' E 154°15'6 9.4
2016-Dec-31 15:33S 26°33' E 154°13'10 9.7
2016-Dec-31 14:33S 26°24' E 154°10'10 9.7
2016-Dec-31 13:33S 26°15' E 154°06'9 9.5
2016-Dec-31 12:33S 26°06' E 154°04'  
Track history (hours):
 
Tides and Currents Weather Stations Pressure Air Temp Water Temp Dewpoint Dewpoint Depression Visibility Wind Speed Wind Dir Waves Ship Positions

Admiralengracht

Last reported at 2017-Jan-06 21:32 UTC. Time now 2017-Mar-23 23:56 UTC.
Position S 32°35' E 152°47'.
Warning: this ship's position is months out of date.

Length 130 m; beam 19 m; draft 9 m.

Type: Cargo ship. MMSI: 244599000.

Date/timePositionNaut miles runAvg speedWind from/ knotsBaromVisibWave heightAir tempDewpointWater temp
2017-Jan-06 21:32S 32°35' E 152°47'10 9.7
2017-Jan-06 20:33S 32°40' E 152°37'1110.6
2017-Jan-06 19:33S 32°45' E 152°26'1110.7
2017-Jan-06 18:33S 32°50' E 152°15'1211.6
2017-Jan-06 17:33S 32°54' E 152°02'1110.8
2017-Jan-06 16:33S 32°55' E 151°49'3 2.6
2017-Jan-06 15:23S 32°54' E 151°46'0 0.0
2017-Jan-06 14:29S 32°54' E 151°46'0 0.0
2017-Jan-06 13:29S 32°54' E 151°46'0 0.0
2017-Jan-06 12:23S 32°54' E 151°46'0 0.0
2017-Jan-06 11:23S 32°54' E 151°46'0 0.0
2017-Jan-06 09:29S 32°54' E 151°46'0 0.0
2017-Jan-06 07:11S 32°54' E 151°46'0 0.0
2017-Jan-05 17:29S 32°54' E 151°46'0 0.0
2017-Jan-05 15:11S 32°54' E 151°46'0 0.0
2017-Jan-05 14:23S 32°54' E 151°46'0 0.0
2017-Jan-05 10:04S 32°54' E 151°46'0 0.0
2017-Jan-05 07:28S 32°54' E 151°46'0 0.0
2017-Jan-05 05:10S 32°54' E 151°46'0 0.0
2017-Jan-05 04:28S 32°54' E 151°46'0 0.0
2017-Jan-04 23:11S 32°54' E 151°46'2 3.9
2017-Jan-04 22:32S 32°55' E 151°49'8 8.5
2017-Jan-04 21:33S 33°02' E 151°54'  
2017-Jan-02 13:04S 32°59' E 151°52'4 7.6
2017-Jan-02 12:33S 32°58' E 151°56'1110.8
2017-Jan-02 11:33S 32°54' E 152°08'1111.4
2017-Jan-02 10:33S 32°48' E 152°20'1111.1
2017-Jan-02 09:33S 32°42' E 152°31'1110.7
2017-Jan-02 08:33S 32°37' E 152°42'367 9.1
2016-Dec-31 16:13S 26°39' E 154°15'6 9.4
2016-Dec-31 15:33S 26°33' E 154°13'10 9.7
2016-Dec-31 14:33S 26°24' E 154°10'10 9.7
2016-Dec-31 13:33S 26°15' E 154°06'9 9.5
2016-Dec-31 12:33S 26°06' E 154°04'  

Dump ship's entire track history